createdAt,value
2022-10-17T00:00:24.286Z,60.44
2022-10-17T00:01:17.483Z,60.25
2022-10-17T00:01:50.724Z,60.37
2022-10-17T00:02:24.117Z,60.58
2022-10-17T00:02:58.477Z,60.49
2022-10-17T00:03:31.965Z,60.49
2022-10-17T00:04:05.248Z,60.26
2022-10-17T00:04:38.756Z,60.45
2022-10-17T00:05:12.481Z,60.62
2022-10-17T00:05:47.798Z,60.75
2022-10-17T00:06:20.843Z,60.60
2022-10-17T00:06:53.996Z,60.68
2022-10-17T00:07:27.322Z,60.97
2022-10-17T00:08:00.624Z,61.10
2022-10-17T00:08:33.855Z,61.24
2022-10-17T00:09:07.106Z,61.32
2022-10-17T00:09:43.892Z,61.06
2022-10-17T00:10:17.894Z,60.91
2022-10-17T00:11:01.439Z,60.99
2022-10-17T00:11:34.713Z,61.21
2022-10-17T00:12:08.076Z,61.28
2022-10-17T00:12:41.358Z,61.22
2022-10-17T00:13:14.614Z,61.39
2022-10-17T00:13:49.642Z,61.47
2022-10-17T00:14:22.748Z,61.41
2022-10-17T00:14:56.089Z,61.53
2022-10-17T00:15:29.624Z,61.69
2022-10-17T00:16:02.831Z,61.96
2022-10-17T00:16:39.978Z,61.93
2022-10-17T00:17:13.217Z,61.87
2022-10-17T00:17:46.564Z,61.86
2022-10-17T00:18:20.559Z,61.64
2022-10-17T00:18:55.244Z,61.46
2022-10-17T00:19:28.505Z,61.65
2022-10-17T00:20:01.699Z,61.68
2022-10-17T00:20:37.850Z,61.33
2022-10-17T00:21:18.952Z,61.45
2022-10-17T00:21:52.464Z,61.59
2022-10-17T00:22:25.843Z,61.28
2022-10-17T00:22:59.249Z,61.02
2022-10-17T00:23:33.856Z,61.04
2022-10-17T00:24:07.261Z,61.08
2022-10-17T00:24:40.341Z,61.31
2022-10-17T00:25:13.844Z,61.58
2022-10-17T00:25:46.996Z,61.72
2022-10-17T00:26:21.224Z,61.93
2022-10-17T00:26:54.341Z,62.09
2022-10-17T00:27:27.737Z,62.21
2022-10-17T00:28:01.145Z,62.24
2022-10-17T00:28:34.385Z,62.28
2022-10-17T00:29:07.815Z,62.37
2022-10-17T00:29:41.128Z,62.46
2022-10-17T00:30:16.572Z,62.51
2022-10-17T00:30:57.077Z,62.54
2022-10-17T00:31:30.239Z,62.60
2022-10-17T00:32:03.349Z,62.61
2022-10-17T00:32:37.012Z,62.57
2022-10-17T00:33:10.094Z,62.86
2022-10-17T00:33:44.389Z,63.05
2022-10-17T00:34:17.474Z,63.12
2022-10-17T00:34:50.604Z,63.14
2022-10-17T00:35:23.611Z,62.95
2022-10-17T00:36:21.217Z,62.91
2022-10-17T00:36:54.412Z,62.92
2022-10-17T00:37:27.678Z,63.04
2022-10-17T00:38:00.839Z,63.10
2022-10-17T00:38:34.190Z,63.18
2022-10-17T00:39:07.509Z,63.45
2022-10-17T00:39:40.547Z,63.66
2022-10-17T00:40:13.671Z,63.66
2022-10-17T00:40:47.080Z,63.67
2022-10-17T00:41:23.320Z,63.67
2022-10-17T00:41:56.264Z,63.74
2022-10-17T00:42:30.067Z,63.75
2022-10-17T00:43:03.533Z,63.90
2022-10-17T00:44:03.628Z,63.87
2022-10-17T00:44:36.633Z,63.71
2022-10-17T00:45:27.974Z,63.89
2022-10-17T00:46:01.307Z,63.97
2022-10-17T00:46:37.330Z,63.88
2022-10-17T00:47:14.570Z,63.86
2022-10-17T00:47:54.180Z,63.85
2022-10-17T00:48:27.902Z,63.78
2022-10-17T00:49:13.051Z,63.77
2022-10-17T00:49:46.347Z,63.72
2022-10-17T00:50:20.347Z,64.03
2022-10-17T00:50:53.509Z,63.97
2022-10-17T00:51:51.250Z,63.90
2022-10-17T00:52:27.259Z,64.04
2022-10-17T00:53:03.200Z,64.35
2022-10-17T00:53:38.986Z,64.52
2022-10-17T00:54:15.242Z,64.55
2022-10-17T00:55:14.320Z,64.51
2022-10-17T00:55:53.419Z,64.37
2022-10-17T00:56:26.717Z,64.27
2022-10-17T00:57:00.469Z,64.23
2022-10-17T00:57:33.707Z,64.03
2022-10-17T00:58:07.004Z,63.88
2022-10-17T00:58:40.172Z,63.78
2022-10-17T00:59:15.341Z,63.87
2022-10-17T00:59:53.253Z,64.14
2022-10-17T01:00:26.555Z,64.31
2022-10-17T01:00:59.746Z,64.23
2022-10-17T01:01:32.993Z,64.20
2022-10-17T01:02:13.647Z,64.17
2022-10-17T01:02:46.957Z,64.07
2022-10-17T01:03:20.164Z,64.14
2022-10-17T01:03:53.355Z,64.19
2022-10-17T01:04:26.613Z,64.31
2022-10-17T01:04:59.873Z,64.46
2022-10-17T01:05:33.417Z,64.67
2022-10-17T01:06:06.557Z,64.96
2022-10-17T01:06:39.628Z,65.09
2022-10-17T01:07:13.242Z,65.08
2022-10-17T01:07:49.293Z,65.14
2022-10-17T01:08:22.414Z,65.10
2022-10-17T01:08:55.941Z,64.96
2022-10-17T01:09:29.280Z,64.98
2022-10-17T01:10:02.731Z,65.23
2022-10-17T01:11:00.298Z,65.37
2022-10-17T01:11:40.707Z,65.51
2022-10-17T01:12:50.886Z,65.24
2022-10-17T01:13:39.176Z,65.25
2022-10-17T01:14:31.800Z,65.26
2022-10-17T01:15:37.155Z,65.14
2022-10-17T01:16:27.592Z,65.19
2022-10-17T01:17:24.695Z,64.89
2022-10-17T01:18:34.140Z,65.03
2022-10-17T01:19:57.993Z,65.02
2022-10-17T01:20:49.744Z,64.73
2022-10-17T01:21:54.804Z,64.62
2022-10-17T01:22:41.639Z,64.69
2022-10-17T01:23:36.706Z,64.79
2022-10-17T01:24:38.027Z,64.35
2022-10-17T01:25:29.095Z,64.59
2022-10-17T01:26:14.660Z,64.45
2022-10-17T01:26:56.892Z,64.57
2022-10-17T01:27:36.765Z,64.74
2022-10-17T01:28:27.315Z,64.77
2022-10-17T01:29:15.623Z,64.72
2022-10-17T01:30:14.773Z,64.72
2022-10-17T01:31:06.992Z,64.82
2022-10-17T01:32:04.040Z,64.81
2022-10-17T01:32:47.787Z,64.83
2022-10-17T01:33:41.645Z,64.66
2022-10-17T01:34:33.752Z,64.65
2022-10-17T01:35:17.573Z,64.62
2022-10-17T01:36:07.698Z,64.66
2022-10-17T01:37:06.081Z,64.63
2022-10-17T01:37:56.365Z,64.42
2022-10-17T01:38:44.554Z,64.18
2022-10-17T01:39:40.754Z,64.26
2022-10-17T01:40:22.956Z,64.09
2022-10-17T01:41:21.389Z,64.01
2022-10-17T01:42:11.905Z,64.01
2022-10-17T01:43:23.367Z,64.01
2022-10-17T01:44:05.165Z,64.03
2022-10-17T01:45:00.305Z,63.98
2022-10-17T01:45:39.346Z,64.30
2022-10-17T01:46:23.382Z,64.40
2022-10-17T01:47:05.869Z,64.19
2022-10-17T01:47:41.366Z,64.14
2022-10-17T01:48:28.891Z,64.28
2022-10-17T01:49:04.760Z,64.31
2022-10-17T01:49:41.301Z,64.64
2022-10-17T01:50:24.670Z,64.67
2022-10-17T01:51:04.776Z,64.65
2022-10-17T01:51:53.276Z,64.48
2022-10-17T01:52:55.959Z,64.63
2022-10-17T01:53:34.240Z,64.71
2022-10-17T01:54:16.289Z,64.57
2022-10-17T01:55:00.058Z,64.61
2022-10-17T01:55:39.327Z,64.92
2022-10-17T01:56:15.285Z,64.66
2022-10-17T01:56:53.677Z,64.40
2022-10-17T01:57:35.589Z,64.45
2022-10-17T01:58:14.283Z,64.49
2022-10-17T01:58:59.925Z,64.58
2022-10-17T01:59:41.429Z,64.23
2022-10-17T02:00:20.073Z,64.03
2022-10-17T02:00:56.681Z,63.91
2022-10-17T02:01:31.552Z,64.01
2022-10-17T02:02:06.793Z,64.16
2022-10-17T02:02:43.941Z,64.22
2022-10-17T02:03:20.980Z,64.39
2022-10-17T02:03:56.771Z,64.62
2022-10-17T02:04:31.175Z,64.62
2022-10-17T02:05:08.688Z,64.48
2022-10-17T02:05:43.999Z,64.53
2022-10-17T02:06:17.415Z,64.73
2022-10-17T02:06:51.812Z,64.70
2022-10-17T02:07:25.146Z,64.69
2022-10-17T02:07:58.869Z,64.69
2022-10-17T02:08:44.818Z,64.90
2022-10-17T02:09:27.664Z,65.12
2022-10-17T02:10:00.770Z,65.09
2022-10-17T02:10:52.214Z,65.18
2022-10-17T02:11:27.940Z,65.26
2022-10-17T02:12:36.421Z,65.60
2022-10-17T02:13:38.093Z,65.75
2022-10-17T02:14:21.268Z,65.61
2022-10-17T02:15:12.958Z,65.66
2022-10-17T02:15:52.618Z,65.76
2022-10-17T02:16:55.507Z,65.72
2022-10-17T02:17:55.348Z,65.62
2022-10-17T02:18:42.262Z,65.55
2022-10-17T02:19:28.460Z,65.48
2022-10-17T02:20:04.500Z,65.55
2022-10-17T02:20:49.870Z,65.50
2022-10-17T02:21:26.029Z,65.55
2022-10-17T02:22:05.065Z,65.60
2022-10-17T02:22:46.996Z,65.59
2022-10-17T02:23:52.530Z,65.52
2022-10-17T02:24:36.883Z,65.47
2022-10-17T02:25:27.691Z,65.61
2022-10-17T02:26:06.790Z,65.59
2022-10-17T02:27:09.263Z,65.66
2022-10-17T02:27:53.031Z,65.53
2022-10-17T02:28:54.644Z,65.69
2022-10-17T02:29:43.837Z,66.48
2022-10-17T02:30:54.708Z,66.46
2022-10-17T02:31:36.422Z,66.26
2022-10-17T02:32:17.761Z,64.09
2022-10-17T02:33:06.731Z,63.17
2022-10-17T02:33:45.236Z,62.44
2022-10-17T02:34:33.334Z,61.18
2022-10-17T02:35:10.136Z,60.88
2022-10-17T02:35:52.779Z,59.68
2022-10-17T02:36:35.105Z,59.36
2022-10-17T02:37:11.959Z,58.96
2022-10-17T02:37:47.529Z,58.86
2022-10-17T02:38:23.131Z,59.25
2022-10-17T02:38:57.594Z,59.76
2022-10-17T02:39:32.417Z,60.34
2022-10-17T02:40:07.162Z,60.81
2022-10-17T02:40:41.636Z,61.42
2022-10-17T02:41:18.880Z,61.74
2022-10-17T02:41:54.281Z,62.16
2022-10-17T02:42:29.436Z,62.64
2022-10-17T02:43:03.122Z,63.00
2022-10-17T02:43:38.273Z,63.21
2022-10-17T02:44:12.309Z,63.34
2022-10-17T02:44:47.312Z,63.08
2022-10-17T02:45:22.145Z,62.38
2022-10-17T02:45:57.199Z,61.77
2022-10-17T02:46:31.974Z,61.06
2022-10-17T02:47:27.719Z,60.30
2022-10-17T02:48:33.301Z,60.60
2022-10-17T02:49:12.923Z,59.14
2022-10-17T02:49:51.882Z,57.81
2022-10-17T02:50:51.275Z,57.84
2022-10-17T02:51:27.384Z,58.16
2022-10-17T02:52:09.064Z,58.98
2022-10-17T02:53:04.081Z,59.30
2022-10-17T02:54:01.657Z,59.71
2022-10-17T02:54:45.607Z,60.02
2022-10-17T02:55:24.812Z,60.86
2022-10-17T02:56:03.094Z,61.60
2022-10-17T02:56:43.533Z,62.25
2022-10-17T02:57:23.798Z,62.64
2022-10-17T02:58:01.717Z,63.37
2022-10-17T02:58:37.073Z,63.42
2022-10-17T02:59:15.864Z,62.98
2022-10-17T02:59:50.954Z,62.91
2022-10-17T03:00:26.012Z,62.64
2022-10-17T03:01:00.927Z,62.05
2022-10-17T03:01:36.513Z,61.07
2022-10-17T03:02:09.759Z,60.27
2022-10-17T03:02:50.052Z,59.85
2022-10-17T03:03:26.987Z,59.51
2022-10-17T03:04:08.736Z,58.97
2022-10-17T03:04:46.731Z,58.85
2022-10-17T03:05:26.690Z,58.95
2022-10-17T03:05:59.885Z,59.28
2022-10-17T03:06:33.027Z,59.92
2022-10-17T03:07:06.215Z,60.52
2022-10-17T03:07:39.476Z,61.07
2022-10-17T03:08:13.384Z,61.54
2022-10-17T03:08:46.450Z,62.01
2022-10-17T03:09:19.584Z,62.61
2022-10-17T03:09:52.629Z,63.06
2022-10-17T03:10:25.793Z,63.35
2022-10-17T03:10:58.867Z,63.26
2022-10-17T03:11:32.030Z,62.58
2022-10-17T03:12:05.976Z,61.65
2022-10-17T03:12:39.347Z,60.78
2022-10-17T03:13:13.011Z,60.42
2022-10-17T03:13:46.208Z,60.31
2022-10-17T03:14:19.364Z,60.03
2022-10-17T03:14:52.516Z,59.96
2022-10-17T03:15:25.674Z,59.83
2022-10-17T03:15:58.857Z,59.90
2022-10-17T03:16:32.014Z,59.97
2022-10-17T03:17:05.146Z,60.07
2022-10-17T03:17:39.288Z,60.17
2022-10-17T03:18:13.095Z,60.49
2022-10-17T03:18:49.340Z,60.92
2022-10-17T03:19:24.451Z,61.28
2022-10-17T03:19:57.849Z,61.14
2022-10-17T03:20:30.989Z,60.91
2022-10-17T03:21:04.165Z,60.39
2022-10-17T03:21:38.487Z,59.72
2022-10-17T03:22:11.560Z,59.22
2022-10-17T03:22:44.730Z,58.50
2022-10-17T03:23:17.785Z,58.33
2022-10-17T03:23:50.718Z,58.31
2022-10-17T03:24:23.735Z,58.48
2022-10-17T03:24:56.913Z,58.84
2022-10-17T03:25:30.160Z,59.45
2022-10-17T03:26:05.469Z,60.02
2022-10-17T03:26:39.099Z,60.52
2022-10-17T03:27:12.469Z,61.16
2022-10-17T03:27:45.620Z,61.62
2022-10-17T03:28:18.668Z,62.13
2022-10-17T03:28:53.681Z,62.79
2022-10-17T03:29:27.828Z,63.18
2022-10-17T03:30:00.949Z,63.26
2022-10-17T03:30:34.276Z,63.25
2022-10-17T03:31:11.984Z,62.90
2022-10-17T03:31:45.044Z,62.57
2022-10-17T03:32:18.373Z,61.67
2022-10-17T03:32:51.461Z,60.66
2022-10-17T03:33:24.710Z,59.93
2022-10-17T03:33:57.894Z,59.00
2022-10-17T03:34:31.080Z,57.89
2022-10-17T03:35:04.690Z,57.41
2022-10-17T03:35:40.299Z,57.36
2022-10-17T03:36:16.940Z,57.59
2022-10-17T03:36:50.126Z,57.82
2022-10-17T03:37:23.202Z,58.44
2022-10-17T03:37:56.708Z,58.98
2022-10-17T03:38:30.016Z,59.44
2022-10-17T03:39:03.071Z,59.71
2022-10-17T03:39:36.438Z,59.96
2022-10-17T03:40:10.546Z,60.46
2022-10-17T03:40:43.611Z,61.01
2022-10-17T03:41:16.765Z,61.61
2022-10-17T03:41:50.143Z,62.13
2022-10-17T03:42:24.021Z,62.37
2022-10-17T03:42:57.406Z,62.73
2022-10-17T03:43:31.374Z,63.11
2022-10-17T03:44:04.968Z,63.22
2022-10-17T03:44:38.504Z,63.04
2022-10-17T03:45:11.673Z,62.43
2022-10-17T03:45:44.888Z,61.94
2022-10-17T03:46:55.929Z,61.00
2022-10-17T03:47:29.588Z,60.52
2022-10-17T03:48:02.839Z,60.17
2022-10-17T03:48:36.071Z,59.63
2022-10-17T03:49:10.366Z,59.18
2022-10-17T03:49:43.527Z,58.87
2022-10-17T03:50:16.743Z,58.80
2022-10-17T03:50:50.383Z,58.98
2022-10-17T03:51:23.491Z,59.35
2022-10-17T03:51:56.643Z,59.88
2022-10-17T03:52:29.816Z,60.33
2022-10-17T03:53:02.863Z,60.75
2022-10-17T03:53:36.285Z,61.34
2022-10-17T03:54:09.454Z,61.93
2022-10-17T03:54:43.319Z,62.41
2022-10-17T03:55:17.316Z,62.83
2022-10-17T03:55:50.415Z,63.35
2022-10-17T03:56:25.721Z,63.42
2022-10-17T03:56:59.227Z,63.25
2022-10-17T03:57:34.568Z,62.78
2022-10-17T03:58:07.713Z,62.29
2022-10-17T03:58:41.782Z,61.39
2022-10-17T03:59:16.005Z,60.74
2022-10-17T03:59:51.700Z,60.15
2022-10-17T04:00:24.812Z,59.59
2022-10-17T04:00:57.874Z,59.16
2022-10-17T04:01:31.216Z,58.78
2022-10-17T04:02:04.637Z,58.39
2022-10-17T04:02:38.169Z,58.29
2022-10-17T04:03:16.274Z,58.57
2022-10-17T04:03:56.121Z,58.89
2022-10-17T04:04:29.262Z,59.57
2022-10-17T04:05:02.528Z,60.43
2022-10-17T04:05:35.668Z,60.96
2022-10-17T04:06:12.131Z,61.66
2022-10-17T04:06:45.433Z,62.17
2022-10-17T04:07:18.575Z,62.41
2022-10-17T04:07:51.734Z,62.93
2022-10-17T04:08:25.107Z,63.64
2022-10-17T04:08:58.328Z,63.81
2022-10-17T04:09:31.534Z,63.36
2022-10-17T04:10:06.044Z,62.62
2022-10-17T04:10:39.141Z,61.81
2022-10-17T04:11:16.660Z,61.13
2022-10-17T04:11:49.930Z,60.60
2022-10-17T04:12:23.025Z,59.72
2022-10-17T04:12:56.223Z,58.92
2022-10-17T04:13:30.080Z,58.10
2022-10-17T04:14:03.455Z,57.79
2022-10-17T04:14:37.983Z,58.04
2022-10-17T04:15:11.463Z,58.33
2022-10-17T04:15:55.066Z,58.80
2022-10-17T04:16:28.669Z,59.14
2022-10-17T04:17:01.704Z,59.77
2022-10-17T04:17:37.966Z,60.37
2022-10-17T04:18:11.457Z,60.79
2022-10-17T04:18:45.089Z,61.52
2022-10-17T04:19:18.119Z,62.14
2022-10-17T04:19:51.866Z,62.60
2022-10-17T04:20:25.133Z,63.30
2022-10-17T04:20:58.574Z,63.67
2022-10-17T04:21:31.882Z,63.53
2022-10-17T04:22:05.145Z,63.18
2022-10-17T04:22:38.223Z,62.45
2022-10-17T04:23:11.334Z,61.48
2022-10-17T04:23:44.388Z,60.84
2022-10-17T04:24:17.553Z,60.06
2022-10-17T04:24:50.642Z,59.39
2022-10-17T04:25:23.911Z,58.93
2022-10-17T04:25:58.575Z,58.49
2022-10-17T04:26:32.186Z,58.12
2022-10-17T04:27:05.321Z,58.33
2022-10-17T04:27:38.389Z,58.73
2022-10-17T04:28:11.800Z,59.32
2022-10-17T04:28:44.900Z,59.70
2022-10-17T04:29:18.855Z,60.15
2022-10-17T04:29:52.031Z,60.55
2022-10-17T04:30:25.374Z,60.94
2022-10-17T04:31:11.932Z,61.49
2022-10-17T04:31:45.155Z,61.97
2022-10-17T04:32:18.421Z,62.72
2022-10-17T04:32:51.604Z,63.14
2022-10-17T04:33:24.747Z,63.64
2022-10-17T04:33:57.972Z,63.58
2022-10-17T04:34:31.255Z,63.35
2022-10-17T04:35:04.708Z,62.86
2022-10-17T04:35:37.914Z,62.28
2022-10-17T04:36:15.198Z,61.66
2022-10-17T04:36:48.556Z,61.20
2022-10-17T04:37:21.627Z,60.62
2022-10-17T04:37:54.683Z,60.21
2022-10-17T04:38:29.017Z,59.63
2022-10-17T04:39:05.238Z,59.10
2022-10-17T04:39:38.417Z,58.58
2022-10-17T04:40:11.800Z,58.50
2022-10-17T04:40:44.934Z,58.67
2022-10-17T04:41:19.644Z,58.92
2022-10-17T04:41:52.851Z,59.38
2022-10-17T04:42:26.090Z,59.99
2022-10-17T04:42:59.337Z,60.33
2022-10-17T04:43:37.051Z,60.95
2022-10-17T04:44:11.221Z,61.51
2022-10-17T04:44:44.427Z,62.08
2022-10-17T04:45:17.735Z,62.50
2022-10-17T04:45:50.904Z,62.82
2022-10-17T04:46:24.421Z,62.94
2022-10-17T04:46:57.628Z,63.18
2022-10-17T04:47:30.836Z,63.10
2022-10-17T04:48:04.246Z,62.58
2022-10-17T04:48:38.226Z,61.82
2022-10-17T04:49:11.459Z,60.89
2022-10-17T04:49:44.597Z,60.17
2022-10-17T04:50:17.801Z,59.65
2022-10-17T04:51:02.843Z,59.16
2022-10-17T04:51:35.879Z,58.58
2022-10-17T04:52:08.948Z,58.14
2022-10-17T04:52:42.027Z,58.28
2022-10-17T04:53:15.148Z,58.58
2022-10-17T04:53:48.343Z,59.00
2022-10-17T04:54:21.436Z,59.48
2022-10-17T04:54:54.487Z,59.91
2022-10-17T04:55:27.627Z,60.39
2022-10-17T04:56:01.919Z,60.90
2022-10-17T04:56:35.198Z,61.41
2022-10-17T04:57:08.569Z,61.88
2022-10-17T04:57:41.639Z,62.32
2022-10-17T04:58:15.100Z,62.84
2022-10-17T04:58:48.854Z,63.60
2022-10-17T04:59:22.091Z,63.82
2022-10-17T04:59:55.443Z,63.68
2022-10-17T05:00:28.627Z,62.91
2022-10-17T05:01:09.328Z,62.27
2022-10-17T05:01:42.429Z,63.13
2022-10-17T05:02:15.833Z,62.84
2022-10-17T05:02:48.935Z,60.54
2022-10-17T05:03:22.106Z,59.83
2022-10-17T05:03:56.258Z,59.30
2022-10-17T05:04:29.432Z,58.45
2022-10-17T05:05:02.527Z,58.07
2022-10-17T05:05:39.137Z,58.09
2022-10-17T05:06:24.083Z,58.42
2022-10-17T05:06:57.234Z,58.84
2022-10-17T05:07:30.468Z,59.52
2022-10-17T05:08:03.805Z,59.90
2022-10-17T05:08:37.232Z,60.50
2022-10-17T05:09:10.502Z,61.08
2022-10-17T05:09:43.572Z,61.83
2022-10-17T05:10:16.969Z,62.33
2022-10-17T05:10:50.165Z,63.00
2022-10-17T05:11:26.364Z,63.61
2022-10-17T05:11:59.482Z,63.67
2022-10-17T05:12:32.642Z,63.06
2022-10-17T05:13:06.840Z,62.42
2022-10-17T05:13:39.946Z,61.95
2022-10-17T05:14:13.085Z,61.19
2022-10-17T05:14:46.338Z,60.71
2022-10-17T05:15:19.448Z,60.16
2022-10-17T05:15:52.654Z,59.65
2022-10-17T05:16:27.124Z,59.21
2022-10-17T05:17:00.843Z,58.73
2022-10-17T05:17:34.023Z,58.61
2022-10-17T05:18:07.677Z,58.50
2022-10-17T05:18:41.059Z,58.83
2022-10-17T05:19:14.633Z,59.33
2022-10-17T05:19:47.797Z,59.91
2022-10-17T05:20:21.481Z,60.51
2022-10-17T05:20:55.915Z,60.99
2022-10-17T05:21:30.391Z,61.67
2022-10-17T05:22:03.726Z,62.24
2022-10-17T05:22:39.768Z,62.93
2022-10-17T05:23:15.355Z,63.59
2022-10-17T05:23:48.478Z,63.77
2022-10-17T05:24:22.120Z,63.75
2022-10-17T05:24:55.425Z,63.62
2022-10-17T05:25:28.620Z,63.19
2022-10-17T05:26:01.873Z,62.80
2022-10-17T05:26:35.364Z,62.72
2022-10-17T05:27:08.565Z,62.56
2022-10-17T05:27:41.917Z,62.27
2022-10-17T05:28:15.176Z,62.23
2022-10-17T05:28:48.680Z,62.29
2022-10-17T05:29:22.285Z,62.23
2022-10-17T05:29:55.465Z,61.94
2022-10-17T05:30:29.949Z,61.65
2022-10-17T05:31:07.599Z,61.72
2022-10-17T05:31:40.799Z,61.60
2022-10-17T05:32:15.827Z,61.59
2022-10-17T05:32:51.833Z,61.42
2022-10-17T05:33:25.084Z,61.43
2022-10-17T05:34:02.861Z,61.47
2022-10-17T05:34:36.300Z,61.41
2022-10-17T05:35:09.406Z,61.44
2022-10-17T05:35:42.754Z,61.46
2022-10-17T05:36:16.147Z,61.44
2022-10-17T05:36:49.214Z,61.44
2022-10-17T05:37:22.713Z,61.51
2022-10-17T05:37:55.945Z,61.47
2022-10-17T05:38:29.299Z,61.46
2022-10-17T05:39:02.610Z,61.51
2022-10-17T05:39:35.840Z,61.56
2022-10-17T05:40:09.665Z,61.45
2022-10-17T05:40:43.036Z,61.46
2022-10-17T05:41:16.222Z,61.53
2022-10-17T05:41:51.470Z,61.59
2022-10-17T05:42:24.893Z,61.55
2022-10-17T05:42:58.009Z,61.46
2022-10-17T05:43:31.729Z,61.36
2022-10-17T05:44:05.744Z,61.44
2022-10-17T05:44:40.025Z,61.33
2022-10-17T05:45:13.372Z,61.32
2022-10-17T05:45:46.563Z,61.31
2022-10-17T05:46:19.787Z,61.49
2022-10-17T05:46:52.876Z,61.57
2022-10-17T05:47:25.963Z,61.64
2022-10-17T05:47:59.179Z,61.55
2022-10-17T05:48:32.648Z,61.45
2022-10-17T05:49:19.443Z,61.47
2022-10-17T05:49:58.696Z,61.77
2022-10-17T05:50:32.048Z,61.89
2022-10-17T05:51:08.984Z,61.96
2022-10-17T05:51:42.583Z,61.97
2022-10-17T05:52:15.843Z,62.04
2022-10-17T05:52:54.024Z,62.09
2022-10-17T05:53:30.212Z,62.22
2022-10-17T05:54:06.451Z,62.56
2022-10-17T05:54:39.636Z,62.69
2022-10-17T05:55:13.549Z,62.70
2022-10-17T05:55:46.816Z,62.66
2022-10-17T05:56:20.769Z,62.64
2022-10-17T05:56:56.069Z,62.66
2022-10-17T05:57:29.225Z,62.83
2022-10-17T05:58:02.754Z,62.91
2022-10-17T05:58:49.690Z,62.96
2022-10-17T05:59:26.273Z,63.04
2022-10-17T05:59:59.477Z,63.10
2022-10-17T06:00:32.865Z,63.06
2022-10-17T06:01:10.638Z,63.21
2022-10-17T06:01:46.024Z,63.22
2022-10-17T06:02:19.656Z,63.34
2022-10-17T06:02:53.022Z,63.37
2022-10-17T06:03:26.438Z,63.33
2022-10-17T06:03:59.569Z,63.32
2022-10-17T06:04:32.972Z,63.23
2022-10-17T06:05:06.505Z,63.23
2022-10-17T06:05:39.600Z,63.29
2022-10-17T06:06:14.452Z,63.26
2022-10-17T06:06:48.183Z,63.15
2022-10-17T06:07:21.631Z,63.17
2022-10-17T06:07:58.218Z,63.10
2022-10-17T06:08:34.734Z,63.17
2022-10-17T06:09:08.950Z,63.32
2022-10-17T06:09:42.558Z,63.39
2022-10-17T06:10:17.571Z,63.22
2022-10-17T06:10:51.265Z,62.59
2022-10-17T06:11:24.410Z,62.27
2022-10-17T06:11:57.642Z,61.71
2022-10-17T06:12:31.057Z,61.39
2022-10-17T06:13:04.586Z,61.28
2022-10-17T06:13:38.810Z,61.03
2022-10-17T06:14:11.977Z,61.07
2022-10-17T06:14:45.288Z,61.12
2022-10-17T06:15:18.569Z,61.14
2022-10-17T06:15:52.270Z,61.28
2022-10-17T06:16:25.425Z,61.50
2022-10-17T06:16:59.492Z,61.70
2022-10-17T06:17:32.719Z,61.94
2022-10-17T06:18:05.979Z,62.17
2022-10-17T06:18:39.605Z,62.39
2022-10-17T06:19:12.955Z,62.56
2022-10-17T06:19:46.087Z,62.68
2022-10-17T06:20:19.362Z,62.64
2022-10-17T06:20:53.125Z,62.22
2022-10-17T06:21:27.555Z,61.83
2022-10-17T06:22:00.652Z,61.64
2022-10-17T06:22:33.772Z,61.11
2022-10-17T06:23:06.998Z,60.68
2022-10-17T06:23:40.460Z,60.43
2022-10-17T06:24:13.629Z,60.36
2022-10-17T06:24:46.687Z,60.33
2022-10-17T06:25:19.775Z,60.35
2022-10-17T06:25:52.863Z,60.31
2022-10-17T06:26:26.072Z,60.23
2022-10-17T06:26:59.610Z,60.33
2022-10-17T06:27:32.999Z,60.42
2022-10-17T06:28:06.373Z,60.46
2022-10-17T06:28:40.108Z,60.56
2022-10-17T06:29:14.202Z,60.69
2022-10-17T06:29:48.402Z,60.81
2022-10-17T06:30:21.530Z,60.86
2022-10-17T06:30:55.198Z,61.13
2022-10-17T06:31:28.575Z,61.20
2022-10-17T06:32:01.822Z,61.60
2022-10-17T06:32:35.282Z,61.95
2022-10-17T06:33:08.794Z,62.09
2022-10-17T06:33:42.251Z,62.17
2022-10-17T06:34:15.429Z,62.15
2022-10-17T06:34:48.606Z,62.29
2022-10-17T06:35:22.335Z,62.45
2022-10-17T06:35:56.923Z,62.57
2022-10-17T06:36:29.991Z,62.59
2022-10-17T06:37:03.161Z,62.26
2022-10-17T06:37:38.001Z,61.85
2022-10-17T06:38:11.452Z,61.54
2022-10-17T06:38:44.802Z,61.40
2022-10-17T06:39:18.084Z,61.44
2022-10-17T06:39:51.258Z,61.43
2022-10-17T06:40:24.556Z,61.49
2022-10-17T06:41:10.349Z,61.77
2022-10-17T06:41:44.940Z,61.96
2022-10-17T06:42:18.525Z,62.48
2022-10-17T06:42:51.714Z,62.68
2022-10-17T06:43:27.781Z,62.76
2022-10-17T06:44:01.295Z,62.87
2022-10-17T06:44:34.763Z,62.89
2022-10-17T06:45:09.163Z,63.35
2022-10-17T06:45:42.833Z,63.82
2022-10-17T06:46:18.171Z,64.09
2022-10-17T06:46:51.397Z,64.24
2022-10-17T06:47:24.536Z,64.63
2022-10-17T06:47:57.621Z,65.02
2022-10-17T06:48:30.769Z,65.13
2022-10-17T06:49:05.037Z,65.30
2022-10-17T06:49:38.193Z,65.44
2022-10-17T06:50:11.377Z,65.59
2022-10-17T06:50:44.659Z,65.76
2022-10-17T06:51:18.866Z,66.01
2022-10-17T06:51:52.011Z,66.21
2022-10-17T06:52:25.317Z,66.33
2022-10-17T06:52:58.403Z,66.47
2022-10-17T06:53:34.152Z,66.78
2022-10-17T06:54:07.324Z,66.87
2022-10-17T06:54:40.651Z,67.18
2022-10-17T06:55:15.824Z,67.43
2022-10-17T06:55:54.234Z,67.74
2022-10-17T06:56:27.313Z,67.83
2022-10-17T06:57:00.681Z,67.85
2022-10-17T06:57:33.800Z,68.01
2022-10-17T06:58:06.883Z,68.08
2022-10-17T06:58:40.991Z,68.05
2022-10-17T06:59:15.849Z,68.18
2022-10-17T06:59:49.008Z,68.35
2022-10-17T07:00:23.652Z,68.33
2022-10-17T07:01:05.971Z,68.28
2022-10-17T07:01:41.775Z,68.29
2022-10-17T07:02:17.769Z,68.18
2022-10-17T07:02:50.945Z,68.16
2022-10-17T07:03:24.112Z,68.18
2022-10-17T07:03:57.295Z,67.91
2022-10-17T07:04:30.714Z,67.29
2022-10-17T07:05:04.259Z,66.45
2022-10-17T07:05:37.611Z,65.56
2022-10-17T07:06:13.469Z,64.95
2022-10-17T07:06:46.706Z,64.53
2022-10-17T07:07:19.861Z,64.32
2022-10-17T07:07:53.109Z,64.22
2022-10-17T07:08:27.046Z,64.28
2022-10-17T07:09:02.982Z,64.26
2022-10-17T07:09:36.277Z,64.31
2022-10-17T07:10:09.925Z,64.33
2022-10-17T07:10:43.322Z,64.45
2022-10-17T07:11:19.784Z,64.40
2022-10-17T07:11:52.977Z,64.35
2022-10-17T07:12:26.619Z,64.34
2022-10-17T07:12:59.660Z,64.48
2022-10-17T07:13:36.806Z,64.53
2022-10-17T07:14:12.193Z,64.72
2022-10-17T07:14:47.475Z,65.08
2022-10-17T07:15:20.637Z,65.29
2022-10-17T07:16:31.869Z,65.78
2022-10-17T07:17:05.169Z,66.34
2022-10-17T07:17:38.322Z,66.78
2022-10-17T07:18:11.668Z,66.98
2022-10-17T07:18:44.942Z,66.93
2022-10-17T07:19:18.163Z,66.97
2022-10-17T07:19:51.328Z,67.45
2022-10-17T07:20:24.483Z,67.85
2022-10-17T07:20:57.865Z,67.85
2022-10-17T07:21:34.069Z,67.62
2022-10-17T07:22:10.499Z,67.39
2022-10-17T07:22:43.931Z,67.28
2022-10-17T07:23:17.140Z,67.16
2022-10-17T07:23:50.439Z,66.92
2022-10-17T07:24:23.568Z,66.67
2022-10-17T07:24:56.728Z,66.68
2022-10-17T07:25:30.133Z,66.74
2022-10-17T07:26:09.220Z,66.82
2022-10-17T07:26:42.619Z,66.97
2022-10-17T07:27:16.111Z,66.71
2022-10-17T07:27:53.366Z,66.62
2022-10-17T07:28:26.482Z,66.45
2022-10-17T07:28:59.845Z,66.05
2022-10-17T07:29:32.983Z,65.67
2022-10-17T07:30:06.971Z,65.61
2022-10-17T07:30:40.156Z,65.82
2022-10-17T07:31:17.655Z,66.30
2022-10-17T07:31:52.249Z,66.48
2022-10-17T07:32:25.330Z,66.59
2022-10-17T07:32:58.528Z,66.52
2022-10-17T07:33:31.650Z,66.11
2022-10-17T07:34:05.171Z,65.48
2022-10-17T07:34:38.336Z,65.06
2022-10-17T07:35:12.973Z,65.05
2022-10-17T07:35:46.251Z,64.37
2022-10-17T07:36:19.476Z,63.78
2022-10-17T07:36:53.362Z,63.00
2022-10-17T07:37:26.837Z,62.53
2022-10-17T07:38:00.409Z,61.85
2022-10-17T07:38:34.384Z,61.36
2022-10-17T07:39:07.859Z,60.40
2022-10-17T07:39:40.988Z,60.22
2022-10-17T07:40:14.061Z,59.87
2022-10-17T07:40:54.439Z,59.69
2022-10-17T07:41:28.211Z,59.91
2022-10-17T07:42:01.383Z,59.41
2022-10-17T07:43:15.740Z,59.09
2022-10-17T07:43:48.844Z,59.13
2022-10-17T07:44:21.953Z,59.36
2022-10-17T07:44:55.422Z,59.77
2022-10-17T07:45:28.595Z,60.18
2022-10-17T07:46:02.487Z,60.60
2022-10-17T07:46:36.160Z,61.10
2022-10-17T07:47:09.551Z,61.50
2022-10-17T07:47:43.201Z,61.86
2022-10-17T07:48:16.724Z,62.54
2022-10-17T07:48:49.874Z,62.29
2022-10-17T07:49:23.150Z,61.97
2022-10-17T07:49:56.471Z,61.54
2022-10-17T07:50:29.556Z,60.79